sensor_id;sensor_type;location;lat;lon;timestamp;temperature;humidity
75961;SHT30;64644;48.914;2.254;2023-01-29T00:00:15;5.88;59.00
75961;SHT30;64644;48.914;2.254;2023-01-29T00:02:41;5.86;58.67
75961;SHT30;64644;48.914;2.254;2023-01-29T00:05:07;5.86;58.86
75961;SHT30;64644;48.914;2.254;2023-01-29T00:07:34;5.84;59.08
75961;SHT30;64644;48.914;2.254;2023-01-29T00:09:59;5.81;58.98
75961;SHT30;64644;48.914;2.254;2023-01-29T00:12:24;5.81;59.23
75961;SHT30;64644;48.914;2.254;2023-01-29T00:14:50;5.78;59.26
75961;SHT30;64644;48.914;2.254;2023-01-29T00:17:16;5.80;59.31
75961;SHT30;64644;48.914;2.254;2023-01-29T00:19:41;5.81;59.51
75961;SHT30;64644;48.914;2.254;2023-01-29T00:22:07;5.78;59.40
75961;SHT30;64644;48.914;2.254;2023-01-29T00:24:32;5.78;59.42
75961;SHT30;64644;48.914;2.254;2023-01-29T00:26:57;5.74;59.51
75961;SHT30;64644;48.914;2.254;2023-01-29T00:29:23;5.75;59.54
75961;SHT30;64644;48.914;2.254;2023-01-29T00:31:50;5.71;59.61
75961;SHT30;64644;48.914;2.254;2023-01-29T00:34:15;5.74;59.80
75961;SHT30;64644;48.914;2.254;2023-01-29T00:36:40;5.75;59.61
75961;SHT30;64644;48.914;2.254;2023-01-29T00:39:08;5.71;59.62
75961;SHT30;64644;48.914;2.254;2023-01-29T00:41:37;5.74;59.86
75961;SHT30;64644;48.914;2.254;2023-01-29T00:44:21;5.70;59.64
75961;SHT30;64644;48.914;2.254;2023-01-29T00:47:06;5.69;59.82
75961;SHT30;64644;48.914;2.254;2023-01-29T00:49:50;5.67;59.90
75961;SHT30;64644;48.914;2.254;2023-01-29T00:55:21;5.61;60.17
75961;SHT30;64644;48.914;2.254;2023-01-29T00:57:49;5.60;60.18
75961;SHT30;64644;48.914;2.254;2023-01-29T01:00:18;5.59;60.29
75961;SHT30;64644;48.914;2.254;2023-01-29T01:02:43;5.54;60.26
75961;SHT30;64644;48.914;2.254;2023-01-29T01:05:27;5.53;60.32
75961;SHT30;64644;48.914;2.254;2023-01-29T01:07:55;5.52;60.42
75961;SHT30;64644;48.914;2.254;2023-01-29T01:12:57;5.50;60.52
75961;SHT30;64644;48.914;2.254;2023-01-29T01:15:27;5.50;60.58
75961;SHT30;64644;48.914;2.254;2023-01-29T01:17:58;5.46;60.56
75961;SHT30;64644;48.914;2.254;2023-01-29T01:20:25;5.44;60.62
75961;SHT30;64644;48.914;2.254;2023-01-29T01:22:52;5.39;60.76
75961;SHT30;64644;48.914;2.254;2023-01-29T01:25:18;5.40;60.69
75961;SHT30;64644;48.914;2.254;2023-01-29T01:27:44;5.40;60.72
75961;SHT30;64644;48.914;2.254;2023-01-29T01:30:12;5.38;60.90
75961;SHT30;64644;48.914;2.254;2023-01-29T01:32:38;5.35;60.84
75961;SHT30;64644;48.914;2.254;2023-01-29T01:35:04;5.31;61.00
75961;SHT30;64644;48.914;2.254;2023-01-29T01:37:29;5.29;61.09
75961;SHT30;64644;48.914;2.254;2023-01-29T01:39:55;5.22;61.16
75961;SHT30;64644;48.914;2.254;2023-01-29T01:42:31;5.19;60.97
75961;SHT30;64644;48.914;2.254;2023-01-29T01:44:59;5.15;61.03
75961;SHT30;64644;48.914;2.254;2023-01-29T01:47:49;5.09;61.30
75961;SHT30;64644;48.914;2.254;2023-01-29T01:50:53;5.08;61.23
75961;SHT30;64644;48.914;2.254;2023-01-29T01:53:14;5.02;61.14
75961;SHT30;64644;48.914;2.254;2023-01-29T01:55:46;4.97;61.34
75961;SHT30;64644;48.914;2.254;2023-01-29T01:58:26;4.94;61.31
75961;SHT30;64644;48.914;2.254;2023-01-29T02:00:52;4.90;61.43
75961;SHT30;64644;48.914;2.254;2023-01-29T02:03:20;4.88;61.59
75961;SHT30;64644;48.914;2.254;2023-01-29T02:06:06;4.83;61.55
75961;SHT30;64644;48.914;2.254;2023-01-29T02:08:57;4.79;61.49
75961;SHT30;64644;48.914;2.254;2023-01-29T02:11:43;4.79;61.92
75961;SHT30;64644;48.914;2.254;2023-01-29T02:14:11;4.74;61.77
75961;SHT30;64644;48.914;2.254;2023-01-29T02:16:38;4.70;61.79
75961;SHT30;64644;48.914;2.254;2023-01-29T02:19:10;4.67;61.93
75961;SHT30;64644;48.914;2.254;2023-01-29T02:46:11;4.43;62.90
75961;SHT30;64644;48.914;2.254;2023-01-29T02:51:22;4.32;62.99
75961;SHT30;64644;48.914;2.254;2023-01-29T02:54:11;4.29;63.49
75961;SHT30;64644;48.914;2.254;2023-01-29T02:56:54;4.34;63.40
75961;SHT30;64644;48.914;2.254;2023-01-29T02:59:30;4.35;63.56
75961;SHT30;64644;48.914;2.254;2023-01-29T03:02:02;4.35;63.37
75961;SHT30;64644;48.914;2.254;2023-01-29T03:04:32;4.35;63.26
75961;SHT30;64644;48.914;2.254;2023-01-29T03:07:03;4.38;63.28
75961;SHT30;64644;48.914;2.254;2023-01-29T03:09:34;4.39;63.35
75961;SHT30;64644;48.914;2.254;2023-01-29T03:12:11;4.39;63.18
75961;SHT30;64644;48.914;2.254;2023-01-29T03:15:00;4.34;63.43
75961;SHT30;64644;48.914;2.254;2023-01-29T03:17:52;4.38;63.70
75961;SHT30;64644;48.914;2.254;2023-01-29T03:20:22;4.42;63.66
75961;SHT30;64644;48.914;2.254;2023-01-29T03:22:53;4.39;63.40
75961;SHT30;64644;48.914;2.254;2023-01-29T03:25:23;4.41;63.28
75961;SHT30;64644;48.914;2.254;2023-01-29T03:28:09;4.35;63.28
75961;SHT30;64644;48.914;2.254;2023-01-29T03:30:59;4.29;63.30
75961;SHT30;64644;48.914;2.254;2023-01-29T03:34:08;4.26;63.54
75961;SHT30;64644;48.914;2.254;2023-01-29T03:39:16;4.21;63.60
75961;SHT30;64644;48.914;2.254;2023-01-29T03:41:51;4.25;63.78
75961;SHT30;64644;48.914;2.254;2023-01-29T03:47:21;4.25;63.68
75961;SHT30;64644;48.914;2.254;2023-01-29T03:52:22;4.22;63.89
75961;SHT30;64644;48.914;2.254;2023-01-29T03:55:03;4.22;63.78
75961;SHT30;64644;48.914;2.254;2023-01-29T03:57:39;4.22;63.96
75961;SHT30;64644;48.914;2.254;2023-01-29T04:00:15;4.24;63.82
75961;SHT30;64644;48.914;2.254;2023-01-29T04:05:21;4.18;63.72
75961;SHT30;64644;48.914;2.254;2023-01-29T04:07:52;4.12;63.81
75961;SHT30;64644;48.914;2.254;2023-01-29T04:10:25;4.12;63.88
75961;SHT30;64644;48.914;2.254;2023-01-29T04:13:05;4.09;63.90
75961;SHT30;64644;48.914;2.254;2023-01-29T04:18:23;4.11;64.18
75961;SHT30;64644;48.914;2.254;2023-01-29T04:20:49;4.07;64.14
75961;SHT30;64644;48.914;2.254;2023-01-29T04:23:26;4.08;64.34
75961;SHT30;64644;48.914;2.254;2023-01-29T04:29:13;4.11;64.20
75961;SHT30;64644;48.914;2.254;2023-01-29T04:38:07;3.98;64.26
75961;SHT30;64644;48.914;2.254;2023-01-29T04:40:51;3.97;64.25
75961;SHT30;64644;48.914;2.254;2023-01-29T04:43:28;3.93;64.37
75961;SHT30;64644;48.914;2.254;2023-01-29T04:49:18;3.97;64.73
75961;SHT30;64644;48.914;2.254;2023-01-29T04:57:24;4.02;64.42
75961;SHT30;64644;48.914;2.254;2023-01-29T05:00:18;4.00;64.23
75961;SHT30;64644;48.914;2.254;2023-01-29T05:02:45;3.94;64.41
75961;SHT30;64644;48.914;2.254;2023-01-29T05:05:13;3.93;64.40
75961;SHT30;64644;48.914;2.254;2023-01-29T05:07:41;3.87;64.49
75961;SHT30;64644;48.914;2.254;2023-01-29T05:10:08;3.83;64.60
75961;SHT30;64644;48.914;2.254;2023-01-29T05:12:36;3.79;64.83
75961;SHT30;64644;48.914;2.254;2023-01-29T05:15:05;3.74;64.73
75961;SHT30;64644;48.914;2.254;2023-01-29T05:17:32;3.72;64.67
75961;SHT30;64644;48.914;2.254;2023-01-29T05:19:58;3.70;64.80
75961;SHT30;64644;48.914;2.254;2023-01-29T05:22:24;3.67;64.65
75961;SHT30;64644;48.914;2.254;2023-01-29T05:24:51;3.67;64.90
75961;SHT30;64644;48.914;2.254;2023-01-29T05:27:23;3.69;64.87
75961;SHT30;64644;48.914;2.254;2023-01-29T05:30:10;3.70;65.00
75961;SHT30;64644;48.914;2.254;2023-01-29T05:32:36;3.69;64.94
75961;SHT30;64644;48.914;2.254;2023-01-29T05:35:01;3.69;64.86
75961;SHT30;64644;48.914;2.254;2023-01-29T05:37:27;3.67;65.03
75961;SHT30;64644;48.914;2.254;2023-01-29T05:39:52;3.72;65.09
75961;SHT30;64644;48.914;2.254;2023-01-29T05:42:18;3.72;65.18
75961;SHT30;64644;48.914;2.254;2023-01-29T05:44:43;3.70;65.04
75961;SHT30;64644;48.914;2.254;2023-01-29T05:47:08;3.72;65.13
75961;SHT30;64644;48.914;2.254;2023-01-29T05:49:34;3.67;65.13
75961;SHT30;64644;48.914;2.254;2023-01-29T05:51:59;3.66;65.06
75961;SHT30;64644;48.914;2.254;2023-01-29T05:54:25;3.67;65.26
75961;SHT30;64644;48.914;2.254;2023-01-29T05:56:50;3.67;65.18
75961;SHT30;64644;48.914;2.254;2023-01-29T05:59:15;3.64;65.30
75961;SHT30;64644;48.914;2.254;2023-01-29T06:01:41;3.62;65.27
75961;SHT30;64644;48.914;2.254;2023-01-29T06:04:07;3.62;65.29
75961;SHT30;64644;48.914;2.254;2023-01-29T06:06:32;3.62;65.33
75961;SHT30;64644;48.914;2.254;2023-01-29T06:08:58;3.63;65.49
75961;SHT30;64644;48.914;2.254;2023-01-29T06:11:24;3.66;65.41
75961;SHT30;64644;48.914;2.254;2023-01-29T06:13:49;3.67;65.33
75961;SHT30;64644;48.914;2.254;2023-01-29T06:16:18;3.70;65.57
75961;SHT30;64644;48.914;2.254;2023-01-29T06:18:43;3.73;65.30
75961;SHT30;64644;48.914;2.254;2023-01-29T06:21:11;3.77;65.26
75961;SHT30;64644;48.914;2.254;2023-01-29T06:23:40;3.79;65.16
75961;SHT30;64644;48.914;2.254;2023-01-29T06:26:11;3.77;65.14
75961;SHT30;64644;48.914;2.254;2023-01-29T06:28:39;3.77;65.15
75961;SHT30;64644;48.914;2.254;2023-01-29T06:31:06;3.79;65.09
75961;SHT30;64644;48.914;2.254;2023-01-29T06:33:33;3.79;65.17
75961;SHT30;64644;48.914;2.254;2023-01-29T06:36:01;3.81;65.16
75961;SHT30;64644;48.914;2.254;2023-01-29T06:38:28;3.80;65.14
75961;SHT30;64644;48.914;2.254;2023-01-29T06:40:54;3.77;65.17
75961;SHT30;64644;48.914;2.254;2023-01-29T06:43:20;3.80;65.16
75961;SHT30;64644;48.914;2.254;2023-01-29T06:45:53;3.80;65.22
75961;SHT30;64644;48.914;2.254;2023-01-29T06:48:19;3.83;65.18
75961;SHT30;64644;48.914;2.254;2023-01-29T06:50:45;3.83;65.40
75961;SHT30;64644;48.914;2.254;2023-01-29T06:53:10;3.79;65.11
75961;SHT30;64644;48.914;2.254;2023-01-29T06:55:36;3.80;65.20
75961;SHT30;64644;48.914;2.254;2023-01-29T06:58:10;3.83;65.40
75961;SHT30;64644;48.914;2.254;2023-01-29T07:00:35;3.84;65.54
75961;SHT30;64644;48.914;2.254;2023-01-29T07:03:02;3.87;65.36
75961;SHT30;64644;48.914;2.254;2023-01-29T07:05:27;3.93;65.16
75961;SHT30;64644;48.914;2.254;2023-01-29T07:07:53;3.90;65.14
75961;SHT30;64644;48.914;2.254;2023-01-29T07:10:19;3.87;64.90
75961;SHT30;64644;48.914;2.254;2023-01-29T07:12:44;3.83;65.22
75961;SHT30;64644;48.914;2.254;2023-01-29T07:15:10;3.80;65.06
75961;SHT30;64644;48.914;2.254;2023-01-29T07:17:37;3.80;65.22
75961;SHT30;64644;48.914;2.254;2023-01-29T07:20:02;3.77;65.20
75961;SHT30;64644;48.914;2.254;2023-01-29T07:22:28;3.76;65.17
75961;SHT30;64644;48.914;2.254;2023-01-29T07:24:53;3.74;65.25
75961;SHT30;64644;48.914;2.254;2023-01-29T07:27:19;3.72;65.40
75961;SHT30;64644;48.914;2.254;2023-01-29T07:29:44;3.69;65.35
75961;SHT30;64644;48.914;2.254;2023-01-29T07:32:11;3.70;65.44
75961;SHT30;64644;48.914;2.254;2023-01-29T07:34:36;3.72;65.44
75961;SHT30;64644;48.914;2.254;2023-01-29T07:37:01;3.69;65.42
75961;SHT30;64644;48.914;2.254;2023-01-29T07:39:27;3.73;65.40
75961;SHT30;64644;48.914;2.254;2023-01-29T07:41:52;3.70;65.43
75961;SHT30;64644;48.914;2.254;2023-01-29T07:44:23;3.64;65.37
75961;SHT30;64644;48.914;2.254;2023-01-29T07:46:51;3.60;65.44
75961;SHT30;64644;48.914;2.254;2023-01-29T07:49:17;3.60;65.68
75961;SHT30;64644;48.914;2.254;2023-01-29T07:51:42;3.55;65.66
75961;SHT30;64644;48.914;2.254;2023-01-29T07:54:08;3.56;65.77
75961;SHT30;64644;48.914;2.254;2023-01-29T07:56:33;3.59;65.80
75961;SHT30;64644;48.914;2.254;2023-01-29T07:58:59;3.59;65.74
75961;SHT30;64644;48.914;2.254;2023-01-29T08:01:24;3.64;65.80
75961;SHT30;64644;48.914;2.254;2023-01-29T08:03:49;3.66;65.80
75961;SHT30;64644;48.914;2.254;2023-01-29T08:06:15;3.72;65.76
75961;SHT30;64644;48.914;2.254;2023-01-29T08:08:45;3.73;65.77
75961;SHT30;64644;48.914;2.254;2023-01-29T08:11:17;3.76;65.86
75961;SHT30;64644;48.914;2.254;2023-01-29T08:13:46;3.84;65.65
75961;SHT30;64644;48.914;2.254;2023-01-29T08:16:11;3.87;65.89
75961;SHT30;64644;48.914;2.254;2023-01-29T08:18:37;3.89;65.67
75961;SHT30;64644;48.914;2.254;2023-01-29T08:21:02;3.95;65.85
75961;SHT30;64644;48.914;2.254;2023-01-29T08:23:28;3.98;65.53
75961;SHT30;64644;48.914;2.254;2023-01-29T08:25:54;4.01;65.56
75961;SHT30;64644;48.914;2.254;2023-01-29T08:28:20;4.04;65.47
75961;SHT30;64644;48.914;2.254;2023-01-29T08:30:45;4.07;65.41
75961;SHT30;64644;48.914;2.254;2023-01-29T08:33:11;4.08;65.37
75961;SHT30;64644;48.914;2.254;2023-01-29T08:35:36;4.15;65.32
75961;SHT30;64644;48.914;2.254;2023-01-29T08:38:03;4.17;65.35
75961;SHT30;64644;48.914;2.254;2023-01-29T08:40:31;4.21;65.37
75961;SHT30;64644;48.914;2.254;2023-01-29T08:43:19;4.28;65.15
75961;SHT30;64644;48.914;2.254;2023-01-29T08:45:45;4.32;65.27
75961;SHT30;64644;48.914;2.254;2023-01-29T08:48:13;4.38;65.22
75961;SHT30;64644;48.914;2.254;2023-01-29T08:50:38;4.46;65.15
75961;SHT30;64644;48.914;2.254;2023-01-29T08:53:06;4.50;64.99
75961;SHT30;64644;48.914;2.254;2023-01-29T08:55:36;4.57;65.00
75961;SHT30;64644;48.914;2.254;2023-01-29T08:58:03;4.66;64.99
75961;SHT30;64644;48.914;2.254;2023-01-29T09:00:30;4.71;64.85
75961;SHT30;64644;48.914;2.254;2023-01-29T09:02:56;4.83;64.59
75961;SHT30;64644;48.914;2.254;2023-01-29T09:05:23;4.90;64.52
75961;SHT30;64644;48.914;2.254;2023-01-29T09:07:49;4.94;64.38
75961;SHT30;64644;48.914;2.254;2023-01-29T09:10:15;5.01;64.27
75961;SHT30;64644;48.914;2.254;2023-01-29T09:12:40;5.07;64.24
75961;SHT30;64644;48.914;2.254;2023-01-29T09:15:06;5.14;63.92
75961;SHT30;64644;48.914;2.254;2023-01-29T09:17:31;5.19;63.83
75961;SHT30;64644;48.914;2.254;2023-01-29T09:19:57;5.29;63.64
75961;SHT30;64644;48.914;2.254;2023-01-29T09:22:23;5.31;63.71
75961;SHT30;64644;48.914;2.254;2023-01-29T09:24:48;5.32;63.28
75961;SHT30;64644;48.914;2.254;2023-01-29T09:27:13;5.33;63.16
75961;SHT30;64644;48.914;2.254;2023-01-29T09:29:38;5.38;62.66
75961;SHT30;64644;48.914;2.254;2023-01-29T09:32:04;5.33;63.05
75961;SHT30;64644;48.914;2.254;2023-01-29T09:34:30;5.40;63.36
75961;SHT30;64644;48.914;2.254;2023-01-29T09:36:55;5.46;63.09
75961;SHT30;64644;48.914;2.254;2023-01-29T09:39:20;5.50;62.41
75961;SHT30;64644;48.914;2.254;2023-01-29T09:42:05;5.54;63.01
75961;SHT30;64644;48.914;2.254;2023-01-29T09:47:31;5.74;62.80
75961;SHT30;64644;48.914;2.254;2023-01-29T09:50:05;5.81;62.67
75961;SHT30;64644;48.914;2.254;2023-01-29T09:52:35;5.88;62.89
75961;SHT30;64644;48.914;2.254;2023-01-29T09:57:43;6.05;62.71
75961;SHT30;64644;48.914;2.254;2023-01-29T10:00:14;6.12;62.33
75961;SHT30;64644;48.914;2.254;2023-01-29T10:09:06;6.26;62.08
75961;SHT30;64644;48.914;2.254;2023-01-29T10:12:18;6.25;62.20
75961;SHT30;64644;48.914;2.254;2023-01-29T10:23:16;6.37;61.67
75961;SHT30;64644;48.914;2.254;2023-01-29T10:25:43;6.43;61.99
75961;SHT30;64644;48.914;2.254;2023-01-29T10:28:22;6.47;62.00
75961;SHT30;64644;48.914;2.254;2023-01-29T10:30:55;6.49;61.94
75961;SHT30;64644;48.914;2.254;2023-01-29T10:33:42;6.54;61.82
75961;SHT30;64644;48.914;2.254;2023-01-29T10:36:17;6.60;61.62
75961;SHT30;64644;48.914;2.254;2023-01-29T10:38:45;6.64;61.71
75961;SHT30;64644;48.914;2.254;2023-01-29T10:44:29;6.80;61.57
75961;SHT30;64644;48.914;2.254;2023-01-29T10:47:28;6.91;61.56
75961;SHT30;64644;48.914;2.254;2023-01-29T10:58:16;7.37;61.04
75961;SHT30;64644;48.914;2.254;2023-01-29T11:00:44;7.46;60.66
75961;SHT30;64644;48.914;2.254;2023-01-29T11:06:10;7.58;60.84
75961;SHT30;64644;48.914;2.254;2023-01-29T11:08:53;7.56;59.56
75961;SHT30;64644;48.914;2.254;2023-01-29T11:11:26;7.49;59.65
75961;SHT30;64644;48.914;2.254;2023-01-29T11:13:59;7.47;60.18
75961;SHT30;64644;48.914;2.254;2023-01-29T11:16:26;7.44;60.44
75961;SHT30;64644;48.914;2.254;2023-01-29T11:18:59;7.47;60.48
75961;SHT30;64644;48.914;2.254;2023-01-29T11:21:27;7.50;60.49
75961;SHT30;64644;48.914;2.254;2023-01-29T11:24:13;7.51;60.36
75961;SHT30;64644;48.914;2.254;2023-01-29T11:26:43;7.50;59.93
75961;SHT30;64644;48.914;2.254;2023-01-29T11:31:56;7.46;60.36
75961;SHT30;64644;48.914;2.254;2023-01-29T11:34:24;7.49;60.12
75961;SHT30;64644;48.914;2.254;2023-01-29T11:37:03;7.49;60.11
75961;SHT30;64644;48.914;2.254;2023-01-29T11:39:30;7.49;60.13
75961;SHT30;64644;48.914;2.254;2023-01-29T11:42:03;7.51;60.10
75961;SHT30;64644;48.914;2.254;2023-01-29T11:47:11;7.51;59.71
75961;SHT30;64644;48.914;2.254;2023-01-29T11:49:38;7.56;60.26
75961;SHT30;64644;48.914;2.254;2023-01-29T11:52:08;7.57;59.99
75961;SHT30;64644;48.914;2.254;2023-01-29T11:54:42;7.63;59.57
75961;SHT30;64644;48.914;2.254;2023-01-29T11:57:39;7.60;59.89
75961;SHT30;64644;48.914;2.254;2023-01-29T12:00:27;7.60;59.30
75961;SHT30;64644;48.914;2.254;2023-01-29T12:05:39;7.63;59.28
75961;SHT30;64644;48.914;2.254;2023-01-29T12:08:15;7.68;59.54
75961;SHT30;64644;48.914;2.254;2023-01-29T12:10:41;7.70;59.57
75961;SHT30;64644;48.914;2.254;2023-01-29T12:15:44;7.71;59.08
75961;SHT30;64644;48.914;2.254;2023-01-29T12:18:43;7.78;58.88
75961;SHT30;64644;48.914;2.254;2023-01-29T12:21:22;7.75;59.02
75961;SHT30;64644;48.914;2.254;2023-01-29T12:24:22;7.75;59.23
75961;SHT30;64644;48.914;2.254;2023-01-29T12:26:51;7.75;58.90
75961;SHT30;64644;48.914;2.254;2023-01-29T12:29:33;7.78;58.95
75961;SHT30;64644;48.914;2.254;2023-01-29T12:32:11;7.78;59.02
75961;SHT30;64644;48.914;2.254;2023-01-29T12:34:46;7.77;58.75
75961;SHT30;64644;48.914;2.254;2023-01-29T12:37:22;7.79;58.23
75961;SHT30;64644;48.914;2.254;2023-01-29T12:39:50;7.85;59.02
75961;SHT30;64644;48.914;2.254;2023-01-29T12:42:23;7.96;58.24
75961;SHT30;64644;48.914;2.254;2023-01-29T12:45:03;7.99;57.43
75961;SHT30;64644;48.914;2.254;2023-01-29T12:49:59;7.99;56.23
75961;SHT30;64644;48.914;2.254;2023-01-29T12:52:38;7.89;56.59
75961;SHT30;64644;48.914;2.254;2023-01-29T12:55:15;7.89;56.48
75961;SHT30;64644;48.914;2.254;2023-01-29T12:57:49;7.92;57.18
75961;SHT30;64644;48.914;2.254;2023-01-29T13:00:23;7.85;56.00
75961;SHT30;64644;48.914;2.254;2023-01-29T13:05:46;7.75;56.33
75961;SHT30;64644;48.914;2.254;2023-01-29T13:08:47;7.75;56.89
75961;SHT30;64644;48.914;2.254;2023-01-29T13:11:31;7.79;56.94
75961;SHT30;64644;48.914;2.254;2023-01-29T13:14:01;7.82;56.84
75961;SHT30;64644;48.914;2.254;2023-01-29T13:16:36;7.85;57.13
75961;SHT30;64644;48.914;2.254;2023-01-29T13:19:33;7.88;56.44
75961;SHT30;64644;48.914;2.254;2023-01-29T13:21:59;7.91;56.51
75961;SHT30;64644;48.914;2.254;2023-01-29T13:24:32;7.92;56.22
75961;SHT30;64644;48.914;2.254;2023-01-29T13:26:59;7.94;56.36
75961;SHT30;64644;48.914;2.254;2023-01-29T13:29:27;7.96;56.69
75961;SHT30;64644;48.914;2.254;2023-01-29T13:31:54;8.02;56.27
75961;SHT30;64644;48.914;2.254;2023-01-29T13:34:29;8.07;56.54
75961;SHT30;64644;48.914;2.254;2023-01-29T13:39:54;8.05;55.96
75961;SHT30;64644;48.914;2.254;2023-01-29T13:42:22;8.05;56.15
75961;SHT30;64644;48.914;2.254;2023-01-29T13:44:54;8.12;56.71
75961;SHT30;64644;48.914;2.254;2023-01-29T13:47:28;8.16;56.11
75961;SHT30;64644;48.914;2.254;2023-01-29T13:52:52;8.19;54.92
75961;SHT30;64644;48.914;2.254;2023-01-29T14:08:00;8.19;55.09
75961;SHT30;64644;48.914;2.254;2023-01-29T14:10:32;8.17;54.62
75961;SHT30;64644;48.914;2.254;2023-01-29T14:15:34;8.12;54.79
75961;SHT30;64644;48.914;2.254;2023-01-29T14:18:15;8.06;54.80
75961;SHT30;64644;48.914;2.254;2023-01-29T14:21:03;8.07;55.09
75961;SHT30;64644;48.914;2.254;2023-01-29T14:23:39;8.05;55.28
75961;SHT30;64644;48.914;2.254;2023-01-29T14:31:51;8.10;55.79
75961;SHT30;64644;48.914;2.254;2023-01-29T14:34:30;8.12;55.99
75961;SHT30;64644;48.914;2.254;2023-01-29T14:39:43;8.16;55.07
75961;SHT30;64644;48.914;2.254;2023-01-29T14:42:21;8.14;55.05
75961;SHT30;64644;48.914;2.254;2023-01-29T14:44:56;8.14;55.04
75961;SHT30;64644;48.914;2.254;2023-01-29T14:50:02;8.20;55.04
75961;SHT30;64644;48.914;2.254;2023-01-29T14:52:44;8.22;55.93
75961;SHT30;64644;48.914;2.254;2023-01-29T14:57:47;8.25;55.22
75961;SHT30;64644;48.914;2.254;2023-01-29T15:00:40;8.20;54.91
75961;SHT30;64644;48.914;2.254;2023-01-29T15:03:41;8.17;55.58
75961;SHT30;64644;48.914;2.254;2023-01-29T15:06:12;8.16;55.39
75961;SHT30;64644;48.914;2.254;2023-01-29T15:08:54;8.14;55.01
75961;SHT30;64644;48.914;2.254;2023-01-29T15:11:29;8.10;55.25
75961;SHT30;64644;48.914;2.254;2023-01-29T15:16:50;8.12;56.46
75961;SHT30;64644;48.914;2.254;2023-01-29T15:19:26;8.14;55.74
75961;SHT30;64644;48.914;2.254;2023-01-29T15:22:07;8.12;55.59
75961;SHT30;64644;48.914;2.254;2023-01-29T15:24:34;8.10;55.87
75961;SHT30;64644;48.914;2.254;2023-01-29T15:27:00;8.13;56.50
75961;SHT30;64644;48.914;2.254;2023-01-29T15:29:26;8.16;56.42
75961;SHT30;64644;48.914;2.254;2023-01-29T15:31:54;8.16;56.51
75961;SHT30;64644;48.914;2.254;2023-01-29T15:34:19;8.22;56.86
75961;SHT30;64644;48.914;2.254;2023-01-29T15:36:46;8.23;56.56
75961;SHT30;64644;48.914;2.254;2023-01-29T15:39:17;8.23;56.39
75961;SHT30;64644;48.914;2.254;2023-01-29T15:41:43;8.22;56.65
75961;SHT30;64644;48.914;2.254;2023-01-29T15:44:16;8.23;56.74
75961;SHT30;64644;48.914;2.254;2023-01-29T15:46:46;8.26;56.80
75961;SHT30;64644;48.914;2.254;2023-01-29T15:51:56;8.29;56.74
75961;SHT30;64644;48.914;2.254;2023-01-29T15:54:23;8.26;55.56
75961;SHT30;64644;48.914;2.254;2023-01-29T15:56:51;8.20;56.25
75961;SHT30;64644;48.914;2.254;2023-01-29T15:59:23;8.17;56.46
75961;SHT30;64644;48.914;2.254;2023-01-29T16:01:51;8.13;56.53
75961;SHT30;64644;48.914;2.254;2023-01-29T16:04:22;8.14;56.79
75961;SHT30;64644;48.914;2.254;2023-01-29T16:06:49;8.17;56.57
75961;SHT30;64644;48.914;2.254;2023-01-29T16:09:19;8.16;56.62
75961;SHT30;64644;48.914;2.254;2023-01-29T16:11:48;8.17;57.01
75961;SHT30;64644;48.914;2.254;2023-01-29T16:14:16;8.19;56.23
75961;SHT30;64644;48.914;2.254;2023-01-29T16:16:45;8.13;56.36
75961;SHT30;64644;48.914;2.254;2023-01-29T16:19:25;8.10;57.01
75961;SHT30;64644;48.914;2.254;2023-01-29T16:22:04;8.10;57.17
75961;SHT30;64644;48.914;2.254;2023-01-29T16:24:33;8.14;57.32
75961;SHT30;64644;48.914;2.254;2023-01-29T16:27:06;8.17;57.56
75961;SHT30;64644;48.914;2.254;2023-01-29T16:29:34;8.20;57.80
75961;SHT30;64644;48.914;2.254;2023-01-29T16:32:01;8.25;57.54
75961;SHT30;64644;48.914;2.254;2023-01-29T16:34:41;8.25;57.64
75961;SHT30;64644;48.914;2.254;2023-01-29T16:37:18;8.26;57.67
75961;SHT30;64644;48.914;2.254;2023-01-29T16:39:47;8.28;58.00
75961;SHT30;64644;48.914;2.254;2023-01-29T16:47:13;8.25;57.30
75961;SHT30;64644;48.914;2.254;2023-01-29T16:52:28;8.26;57.68
75961;SHT30;64644;48.914;2.254;2023-01-29T16:55:16;8.22;57.18
75961;SHT30;64644;48.914;2.254;2023-01-29T16:57:48;8.25;58.14
75961;SHT30;64644;48.914;2.254;2023-01-29T17:00:24;8.22;57.33
75961;SHT30;64644;48.914;2.254;2023-01-29T17:02:58;8.25;57.94
75961;SHT30;64644;48.914;2.254;2023-01-29T17:05:27;8.28;57.94
75961;SHT30;64644;48.914;2.254;2023-01-29T17:07:57;8.23;57.23
75961;SHT30;64644;48.914;2.254;2023-01-29T17:10:24;8.22;56.99
75961;SHT30;64644;48.914;2.254;2023-01-29T17:12:56;8.16;56.87
75961;SHT30;64644;48.914;2.254;2023-01-29T17:18:27;8.17;58.25
75961;SHT30;64644;48.914;2.254;2023-01-29T17:20:53;8.13;57.21
75961;SHT30;64644;48.914;2.254;2023-01-29T17:23:18;8.12;57.28
75961;SHT30;64644;48.914;2.254;2023-01-29T17:25:45;8.12;57.13
75961;SHT30;64644;48.914;2.254;2023-01-29T17:28:14;8.05;57.43
75961;SHT30;64644;48.914;2.254;2023-01-29T17:30:41;8.01;57.22
75961;SHT30;64644;48.914;2.254;2023-01-29T17:33:15;7.99;57.40
75961;SHT30;64644;48.914;2.254;2023-01-29T17:35:42;7.96;57.24
75961;SHT30;64644;48.914;2.254;2023-01-29T17:38:12;7.92;57.29
75961;SHT30;64644;48.914;2.254;2023-01-29T17:40:54;7.94;57.93
75961;SHT30;64644;48.914;2.254;2023-01-29T17:43:23;7.94;57.61
75961;SHT30;64644;48.914;2.254;2023-01-29T17:45:49;7.88;57.45
75961;SHT30;64644;48.914;2.254;2023-01-29T17:48:20;7.86;57.85
75961;SHT30;64644;48.914;2.254;2023-01-29T17:50:48;7.86;58.68
75961;SHT30;64644;48.914;2.254;2023-01-29T17:53:15;7.82;57.85
75961;SHT30;64644;48.914;2.254;2023-01-29T17:55:41;7.78;58.07
75961;SHT30;64644;48.914;2.254;2023-01-29T17:58:22;7.77;58.18
75961;SHT30;64644;48.914;2.254;2023-01-29T18:00:48;7.78;58.11
75961;SHT30;64644;48.914;2.254;2023-01-29T18:03:14;7.77;58.26
75961;SHT30;64644;48.914;2.254;2023-01-29T18:05:41;7.78;58.20
75961;SHT30;64644;48.914;2.254;2023-01-29T18:08:19;7.75;58.33
75961;SHT30;64644;48.914;2.254;2023-01-29T18:10:45;7.71;58.57
75961;SHT30;64644;48.914;2.254;2023-01-29T18:13:11;7.71;58.61
75961;SHT30;64644;48.914;2.254;2023-01-29T18:15:37;7.70;58.84
75961;SHT30;64644;48.914;2.254;2023-01-29T18:18:03;7.67;58.97
75961;SHT30;64644;48.914;2.254;2023-01-29T18:20:30;7.64;59.09
75961;SHT30;64644;48.914;2.254;2023-01-29T18:22:56;7.66;59.05
75961;SHT30;64644;48.914;2.254;2023-01-29T18:25:21;7.64;59.11
75961;SHT30;64644;48.914;2.254;2023-01-29T18:27:47;7.61;59.04
75961;SHT30;64644;48.914;2.254;2023-01-29T18:30:13;7.61;59.19
75961;SHT30;64644;48.914;2.254;2023-01-29T18:32:38;7.61;59.30
75961;SHT30;64644;48.914;2.254;2023-01-29T18:35:04;7.63;59.32
75961;SHT30;64644;48.914;2.254;2023-01-29T18:37:31;7.63;59.31
75961;SHT30;64644;48.914;2.254;2023-01-29T18:39:57;7.64;59.29
75961;SHT30;64644;48.914;2.254;2023-01-29T18:42:22;7.66;59.36
75961;SHT30;64644;48.914;2.254;2023-01-29T18:44:48;7.63;59.40
75961;SHT30;64644;48.914;2.254;2023-01-29T18:47:13;7.64;59.54
75961;SHT30;64644;48.914;2.254;2023-01-29T18:49:40;7.63;59.55
75961;SHT30;64644;48.914;2.254;2023-01-29T18:52:06;7.63;59.54
75961;SHT30;64644;48.914;2.254;2023-01-29T18:54:32;7.66;59.58